sensor_id;sensor_type;location;lat;lon;timestamp;P1;durP1;ratioP1;P2;durP2;ratioP2
64022;SDS011;50264;52.088;5.296;2023-04-15T00:00:15;29.3;;;17.61;;
64022;SDS011;50264;52.088;5.296;2023-04-15T00:01:52;20.41;;;14.6;;
64022;SDS011;50264;52.088;5.296;2023-04-15T00:05:04;34.1;;;22.1;;
64022;SDS011;50264;52.088;5.296;2023-04-15T00:06:41;29.9;;;20.11;;
64022;SDS011;50264;52.088;5.296;2023-04-15T00:08:17;32.4;;;18.41;;
64022;SDS011;50264;52.088;5.296;2023-04-15T00:09:53;37.21;;;21.6;;
64022;SDS011;50264;52.088;5.296;2023-04-15T00:13:06;32.71;;;20.0;;
64022;SDS011;50264;52.088;5.296;2023-04-15T00:14:42;29.9;;;21.8;;
64022;SDS011;50264;52.088;5.296;2023-04-15T00:16:18;36.81;;;22.9;;
64022;SDS011;50264;52.088;5.296;2023-04-15T00:19:30;38.5;;;21.5;;
64022;SDS011;50264;52.088;5.296;2023-04-15T00:21:06;26.6;;;19.61;;
64022;SDS011;50264;52.088;5.296;2023-04-15T00:22:43;27.5;;;18.61;;
64022;SDS011;50264;52.088;5.296;2023-04-15T00:25:55;24.4;;;17.61;;
64022;SDS011;50264;52.088;5.296;2023-04-15T00:27:31;26.5;;;15.4;;
64022;SDS011;50264;52.088;5.296;2023-04-15T00:29:07;24.1;;;14.9;;
64022;SDS011;50264;52.088;5.296;2023-04-15T00:30:43;28.3;;;16.2;;
64022;SDS011;50264;52.088;5.296;2023-04-15T00:33:57;21.0;;;13.6;;
64022;SDS011;50264;52.088;5.296;2023-04-15T00:35:33;17.8;;;12.9;;
64022;SDS011;50264;52.088;5.296;2023-04-15T00:37:09;25.3;;;11.9;;
64022;SDS011;50264;52.088;5.296;2023-04-15T00:40:22;16.0;;;11.2;;
64022;SDS011;50264;52.088;5.296;2023-04-15T00:41:58;20.6;;;11.1;;
64022;SDS011;50264;52.088;5.296;2023-04-15T00:43:34;14.8;;;12.2;;
64022;SDS011;50264;52.088;5.296;2023-04-15T00:46:47;19.61;;;12.1;;
64022;SDS011;50264;52.088;5.296;2023-04-15T00:48:26;16.7;;;11.2;;
64022;SDS011;50264;52.088;5.296;2023-04-15T00:50:03;20.2;;;10.3;;
64022;SDS011;50264;52.088;5.296;2023-04-15T00:51:40;12.5;;;9.0;;
64022;SDS011;50264;52.088;5.296;2023-04-15T00:54:52;15.1;;;10.6;;
64022;SDS011;50264;52.088;5.296;2023-04-15T00:56:31;15.3;;;8.31;;
64022;SDS011;50264;52.088;5.296;2023-04-15T00:58:10;15.9;;;8.2;;
64022;SDS011;50264;52.088;5.296;2023-04-15T01:01:23;9.9;;;7.9;;
64022;SDS011;50264;52.088;5.296;2023-04-15T01:03:00;17.61;;;7.7;;
64022;SDS011;50264;52.088;5.296;2023-04-15T01:04:36;20.3;;;8.1;;
64022;SDS011;50264;52.088;5.296;2023-04-15T01:07:48;12.6;;;8.0;;
64022;SDS011;50264;52.088;5.296;2023-04-15T01:09:24;15.0;;;8.1;;
64022;SDS011;50264;52.088;5.296;2023-04-15T01:11:00;10.5;;;7.6;;
64022;SDS011;50264;52.088;5.296;2023-04-15T01:12:38;12.0;;;7.2;;
64022;SDS011;50264;52.088;5.296;2023-04-15T01:15:50;10.1;;;7.1;;
64022;SDS011;50264;52.088;5.296;2023-04-15T01:17:27;10.0;;;7.2;;
64022;SDS011;50264;52.088;5.296;2023-04-15T01:19:03;11.5;;;8.31;;
64022;SDS011;50264;52.088;5.296;2023-04-15T01:22:16;10.6;;;6.9;;
64022;SDS011;50264;52.088;5.296;2023-04-15T01:23:52;11.3;;;7.5;;
64022;SDS011;50264;52.088;5.296;2023-04-15T01:25:30;10.3;;;7.4;;
64022;SDS011;50264;52.088;5.296;2023-04-15T01:28:43;13.9;;;8.0;;
64022;SDS011;50264;52.088;5.296;2023-04-15T01:30:19;9.0;;;7.2;;
64022;SDS011;50264;52.088;5.296;2023-04-15T01:31:55;12.5;;;8.0;;
64022;SDS011;50264;52.088;5.296;2023-04-15T01:33:31;11.2;;;6.9;;
64022;SDS011;50264;52.088;5.296;2023-04-15T01:36:43;13.5;;;7.7;;
64022;SDS011;50264;52.088;5.296;2023-04-15T01:38:20;12.5;;;7.2;;
64022;SDS011;50264;52.088;5.296;2023-04-15T01:39:56;13.9;;;7.7;;
64022;SDS011;50264;52.088;5.296;2023-04-15T01:43:08;15.2;;;7.8;;
64022;SDS011;50264;52.088;5.296;2023-04-15T01:44:44;14.6;;;8.6;;
64022;SDS011;50264;52.088;5.296;2023-04-15T01:46:20;8.9;;;7.5;;
64022;SDS011;50264;52.088;5.296;2023-04-15T01:49:33;11.4;;;7.8;;
64022;SDS011;50264;52.088;5.296;2023-04-15T01:51:10;15.1;;;7.7;;
64022;SDS011;50264;52.088;5.296;2023-04-15T01:52:46;13.0;;;7.7;;
64022;SDS011;50264;52.088;5.296;2023-04-15T01:55:58;13.1;;;8.2;;
64022;SDS011;50264;52.088;5.296;2023-04-15T01:57:34;16.11;;;8.5;;
64022;SDS011;50264;52.088;5.296;2023-04-15T01:59:10;15.7;;;7.9;;
64022;SDS011;50264;52.088;5.296;2023-04-15T02:00:46;13.4;;;7.8;;
64022;SDS011;50264;52.088;5.296;2023-04-15T02:03:59;11.0;;;8.0;;
64022;SDS011;50264;52.088;5.296;2023-04-15T02:05:35;12.1;;;8.0;;
64022;SDS011;50264;52.088;5.296;2023-04-15T02:07:11;13.9;;;7.9;;
64022;SDS011;50264;52.088;5.296;2023-04-15T02:10:23;11.4;;;7.8;;
64022;SDS011;50264;52.088;5.296;2023-04-15T02:11:59;12.8;;;8.81;;
64022;SDS011;50264;52.088;5.296;2023-04-15T02:13:35;8.81;;;7.7;;
64022;SDS011;50264;52.088;5.296;2023-04-15T02:16:47;14.4;;;7.9;;
64022;SDS011;50264;52.088;5.296;2023-04-15T02:18:23;13.9;;;8.9;;
64022;SDS011;50264;52.088;5.296;2023-04-15T02:19:59;12.9;;;8.5;;
64022;SDS011;50264;52.088;5.296;2023-04-15T02:23:10;10.6;;;7.7;;
64022;SDS011;50264;52.088;5.296;2023-04-15T02:24:46;10.7;;;7.6;;
64022;SDS011;50264;52.088;5.296;2023-04-15T02:26:21;11.6;;;8.31;;
64022;SDS011;50264;52.088;5.296;2023-04-15T02:27:57;22.8;;;8.6;;
64022;SDS011;50264;52.088;5.296;2023-04-15T02:31:08;13.8;;;7.8;;
64022;SDS011;50264;52.088;5.296;2023-04-15T02:32:44;13.8;;;9.21;;
64022;SDS011;50264;52.088;5.296;2023-04-15T02:34:20;12.9;;;7.7;;
64022;SDS011;50264;52.088;5.296;2023-04-15T02:37:34;16.0;;;8.4;;
64022;SDS011;50264;52.088;5.296;2023-04-15T02:39:11;12.4;;;7.9;;
64022;SDS011;50264;52.088;5.296;2023-04-15T02:40:47;10.8;;;8.2;;
64022;SDS011;50264;52.088;5.296;2023-04-15T02:43:59;10.1;;;8.1;;
64022;SDS011;50264;52.088;5.296;2023-04-15T02:45:35;12.6;;;8.4;;
64022;SDS011;50264;52.088;5.296;2023-04-15T02:47:11;11.5;;;8.2;;
64022;SDS011;50264;52.088;5.296;2023-04-15T02:48:48;17.91;;;8.5;;
64022;SDS011;50264;52.088;5.296;2023-04-15T02:52:01;13.1;;;9.1;;
64022;SDS011;50264;52.088;5.296;2023-04-15T02:53:37;11.7;;;8.2;;
64022;SDS011;50264;52.088;5.296;2023-04-15T02:55:13;11.6;;;8.71;;
64022;SDS011;50264;52.088;5.296;2023-04-15T02:58:25;10.7;;;8.71;;
64022;SDS011;50264;52.088;5.296;2023-04-15T03:00:02;14.5;;;8.4;;
64022;SDS011;50264;52.088;5.296;2023-04-15T03:01:39;13.1;;;8.5;;
64022;SDS011;50264;52.088;5.296;2023-04-15T03:04:51;12.1;;;8.9;;
64022;SDS011;50264;52.088;5.296;2023-04-15T03:06:27;11.0;;;9.0;;
64022;SDS011;50264;52.088;5.296;2023-04-15T03:08:03;15.6;;;9.6;;
64022;SDS011;50264;52.088;5.296;2023-04-15T03:11:15;11.5;;;8.5;;
64022;SDS011;50264;52.088;5.296;2023-04-15T03:12:51;10.6;;;8.1;;
64022;SDS011;50264;52.088;5.296;2023-04-15T03:14:27;11.6;;;8.5;;
64022;SDS011;50264;52.088;5.296;2023-04-15T03:16:04;12.6;;;8.5;;
64022;SDS011;50264;52.088;5.296;2023-04-15T03:19:17;10.0;;;8.6;;
64022;SDS011;50264;52.088;5.296;2023-04-15T03:22:29;13.3;;;9.4;;
64022;SDS011;50264;52.088;5.296;2023-04-15T03:25:41;13.0;;;9.4;;
64022;SDS011;50264;52.088;5.296;2023-04-15T03:27:20;16.11;;;9.21;;
64022;SDS011;50264;52.088;5.296;2023-04-15T03:28:56;16.11;;;9.4;;
64022;SDS011;50264;52.088;5.296;2023-04-15T03:32:09;15.3;;;9.5;;
64022;SDS011;50264;52.088;5.296;2023-04-15T03:33:45;9.71;;;8.1;;
64022;SDS011;50264;52.088;5.296;2023-04-15T03:35:21;18.61;;;8.6;;
64022;SDS011;50264;52.088;5.296;2023-04-15T03:36:57;15.0;;;8.71;;
64022;SDS011;50264;52.088;5.296;2023-04-15T03:40:10;13.5;;;8.5;;
64022;SDS011;50264;52.088;5.296;2023-04-15T03:41:47;12.9;;;8.81;;
64022;SDS011;50264;52.088;5.296;2023-04-15T03:43:23;10.1;;;9.1;;
64022;SDS011;50264;52.088;5.296;2023-04-15T03:46:35;11.9;;;9.6;;
64022;SDS011;50264;52.088;5.296;2023-04-15T03:48:11;13.6;;;9.5;;
64022;SDS011;50264;52.088;5.296;2023-04-15T03:49:47;11.9;;;9.31;;
64022;SDS011;50264;52.088;5.296;2023-04-15T03:53:00;14.3;;;9.5;;
64022;SDS011;50264;52.088;5.296;2023-04-15T03:54:36;14.0;;;9.5;;
64022;SDS011;50264;52.088;5.296;2023-04-15T03:56:12;10.9;;;9.5;;
64022;SDS011;50264;52.088;5.296;2023-04-15T03:59:24;13.5;;;9.21;;
64022;SDS011;50264;52.088;5.296;2023-04-15T04:01:00;13.1;;;9.1;;
64022;SDS011;50264;52.088;5.296;2023-04-15T04:02:36;20.41;;;10.3;;
64022;SDS011;50264;52.088;5.296;2023-04-15T04:04:12;13.8;;;9.9;;
64022;SDS011;50264;52.088;5.296;2023-04-15T04:07:27;13.1;;;9.81;;
64022;SDS011;50264;52.088;5.296;2023-04-15T04:09:03;13.2;;;9.4;;
64022;SDS011;50264;52.088;5.296;2023-04-15T04:10:39;11.0;;;9.5;;
64022;SDS011;50264;52.088;5.296;2023-04-15T04:13:51;10.9;;;9.81;;
64022;SDS011;50264;52.088;5.296;2023-04-15T04:17:06;13.4;;;9.5;;
64022;SDS011;50264;52.088;5.296;2023-04-15T04:20:19;13.9;;;10.7;;
64022;SDS011;50264;52.088;5.296;2023-04-15T04:21:56;12.5;;;9.21;;
64022;SDS011;50264;52.088;5.296;2023-04-15T04:23:32;11.4;;;9.81;;
64022;SDS011;50264;52.088;5.296;2023-04-15T04:25:09;13.0;;;10.3;;
64022;SDS011;50264;52.088;5.296;2023-04-15T04:29:59;15.1;;;10.0;;
64022;SDS011;50264;52.088;5.296;2023-04-15T04:31:36;14.4;;;10.1;;
64022;SDS011;50264;52.088;5.296;2023-04-15T04:36:25;11.9;;;9.71;;
64022;SDS011;50264;52.088;5.296;2023-04-15T04:41:14;11.8;;;9.81;;
64022;SDS011;50264;52.088;5.296;2023-04-15T04:42:50;10.7;;;9.1;;
64022;SDS011;50264;52.088;5.296;2023-04-15T04:44:27;13.1;;;9.21;;
64022;SDS011;50264;52.088;5.296;2023-04-15T04:47:40;12.6;;;9.71;;
64022;SDS011;50264;52.088;5.296;2023-04-15T04:49:17;15.6;;;10.4;;
64022;SDS011;50264;52.088;5.296;2023-04-15T04:50:53;12.0;;;9.21;;
64022;SDS011;50264;52.088;5.296;2023-04-15T04:54:09;11.8;;;9.9;;
64022;SDS011;50264;52.088;5.296;2023-04-15T04:55:45;13.4;;;9.9;;
64022;SDS011;50264;52.088;5.296;2023-04-15T04:57:22;12.2;;;9.0;;
64022;SDS011;50264;52.088;5.296;2023-04-15T04:58:58;11.4;;;9.6;;
64022;SDS011;50264;52.088;5.296;2023-04-15T05:02:12;17.0;;;9.71;;
64022;SDS011;50264;52.088;5.296;2023-04-15T05:03:48;13.5;;;10.6;;
64022;SDS011;50264;52.088;5.296;2023-04-15T05:05:25;12.4;;;9.81;;
64022;SDS011;50264;52.088;5.296;2023-04-15T05:08:38;11.1;;;10.0;;
64022;SDS011;50264;52.088;5.296;2023-04-15T05:10:14;13.9;;;10.3;;
64022;SDS011;50264;52.088;5.296;2023-04-15T05:11:51;15.2;;;11.1;;
64022;SDS011;50264;52.088;5.296;2023-04-15T05:13:28;11.2;;;10.1;;
64022;SDS011;50264;52.088;5.296;2023-04-15T05:16:42;12.3;;;10.0;;
64022;SDS011;50264;52.088;5.296;2023-04-15T05:18:19;12.4;;;10.3;;
64022;SDS011;50264;52.088;5.296;2023-04-15T05:19:55;11.4;;;10.21;;
64022;SDS011;50264;52.088;5.296;2023-04-15T05:23:08;12.5;;;10.6;;
64022;SDS011;50264;52.088;5.296;2023-04-15T05:26:20;13.6;;;10.9;;
64022;SDS011;50264;52.088;5.296;2023-04-15T05:27:57;18.91;;;11.8;;
64022;SDS011;50264;52.088;5.296;2023-04-15T05:31:09;17.2;;;11.4;;
64022;SDS011;50264;52.088;5.296;2023-04-15T05:32:45;17.2;;;10.9;;
64022;SDS011;50264;52.088;5.296;2023-04-15T05:34:21;17.41;;;11.2;;
64022;SDS011;50264;52.088;5.296;2023-04-15T05:37:34;16.61;;;10.6;;
64022;SDS011;50264;52.088;5.296;2023-04-15T05:39:11;15.9;;;11.2;;
64022;SDS011;50264;52.088;5.296;2023-04-15T05:40:47;14.1;;;11.3;;
64022;SDS011;50264;52.088;5.296;2023-04-15T05:43:59;16.4;;;11.2;;
64022;SDS011;50264;52.088;5.296;2023-04-15T05:45:36;15.0;;;10.7;;
64022;SDS011;50264;52.088;5.296;2023-04-15T05:47:12;14.4;;;10.21;;
64022;SDS011;50264;52.088;5.296;2023-04-15T05:48:48;14.4;;;10.21;;
64022;SDS011;50264;52.088;5.296;2023-04-15T05:52:00;12.8;;;11.2;;
64022;SDS011;50264;52.088;5.296;2023-04-15T05:53:36;17.11;;;11.7;;
64022;SDS011;50264;52.088;5.296;2023-04-15T05:55:13;14.6;;;11.3;;
64022;SDS011;50264;52.088;5.296;2023-04-15T05:58:25;12.1;;;10.8;;
64022;SDS011;50264;52.088;5.296;2023-04-15T06:00:01;16.3;;;11.3;;
64022;SDS011;50264;52.088;5.296;2023-04-15T06:01:38;16.0;;;13.5;;
64022;SDS011;50264;52.088;5.296;2023-04-15T06:04:51;14.3;;;11.7;;
64022;SDS011;50264;52.088;5.296;2023-04-15T06:06:27;13.4;;;12.0;;
64022;SDS011;50264;52.088;5.296;2023-04-15T06:08:03;13.6;;;12.1;;
64022;SDS011;50264;52.088;5.296;2023-04-15T06:09:40;13.6;;;12.2;;
64022;SDS011;50264;52.088;5.296;2023-04-15T06:12:53;14.8;;;13.0;;
64022;SDS011;50264;52.088;5.296;2023-04-15T06:14:29;22.0;;;14.0;;
64022;SDS011;50264;52.088;5.296;2023-04-15T06:16:05;17.91;;;14.2;;
64022;SDS011;50264;52.088;5.296;2023-04-15T06:19:17;15.4;;;12.8;;
64022;SDS011;50264;52.088;5.296;2023-04-15T06:20:54;16.8;;;13.3;;
64022;SDS011;50264;52.088;5.296;2023-04-15T06:22:30;16.9;;;13.8;;
64022;SDS011;50264;52.088;5.296;2023-04-15T06:25:42;14.9;;;13.4;;
64022;SDS011;50264;52.088;5.296;2023-04-15T06:27:18;20.6;;;13.5;;
64022;SDS011;50264;52.088;5.296;2023-04-15T06:28:54;15.5;;;14.0;;
64022;SDS011;50264;52.088;5.296;2023-04-15T06:32:07;16.8;;;13.6;;
64022;SDS011;50264;52.088;5.296;2023-04-15T06:33:44;14.9;;;13.3;;
64022;SDS011;50264;52.088;5.296;2023-04-15T06:35:20;14.4;;;12.9;;
64022;SDS011;50264;52.088;5.296;2023-04-15T06:36:56;17.0;;;13.9;;
64022;SDS011;50264;52.088;5.296;2023-04-15T06:40:09;16.8;;;14.0;;
64022;SDS011;50264;52.088;5.296;2023-04-15T06:41:45;18.91;;;14.1;;
64022;SDS011;50264;52.088;5.296;2023-04-15T06:43:21;15.5;;;13.8;;
64022;SDS011;50264;52.088;5.296;2023-04-15T06:46:33;15.3;;;13.2;;
64022;SDS011;50264;52.088;5.296;2023-04-15T06:48:09;20.41;;;13.8;;
64022;SDS011;50264;52.088;5.296;2023-04-15T06:49:46;18.7;;;14.5;;
64022;SDS011;50264;52.088;5.296;2023-04-15T06:52:58;17.8;;;13.6;;
64022;SDS011;50264;52.088;5.296;2023-04-15T06:54:34;17.2;;;14.0;;
64022;SDS011;50264;52.088;5.296;2023-04-15T06:56:10;19.7;;;13.8;;
64022;SDS011;50264;52.088;5.296;2023-04-15T06:57:46;21.5;;;14.0;;
64022;SDS011;50264;52.088;5.296;2023-04-15T07:00:59;15.0;;;13.4;;
64022;SDS011;50264;52.088;5.296;2023-04-15T07:02:35;20.41;;;13.5;;
64022;SDS011;50264;52.088;5.296;2023-04-15T07:04:11;17.91;;;12.8;;
64022;SDS011;50264;52.088;5.296;2023-04-15T07:07:24;17.61;;;13.3;;
64022;SDS011;50264;52.088;5.296;2023-04-15T07:09:00;14.0;;;12.7;;
64022;SDS011;50264;52.088;5.296;2023-04-15T07:10:36;17.2;;;13.1;;
64022;SDS011;50264;52.088;5.296;2023-04-15T07:13:48;18.0;;;13.3;;
64022;SDS011;50264;52.088;5.296;2023-04-15T07:15:24;17.61;;;14.5;;
64022;SDS011;50264;52.088;5.296;2023-04-15T07:17:01;16.0;;;12.8;;
64022;SDS011;50264;52.088;5.296;2023-04-15T07:20:14;16.9;;;13.7;;
64022;SDS011;50264;52.088;5.296;2023-04-15T07:21:50;16.11;;;13.4;;
64022;SDS011;50264;52.088;5.296;2023-04-15T07:23:26;16.9;;;13.4;;
64022;SDS011;50264;52.088;5.296;2023-04-15T07:25:03;15.0;;;12.9;;
64022;SDS011;50264;52.088;5.296;2023-04-15T07:28:16;14.0;;;12.5;;
64022;SDS011;50264;52.088;5.296;2023-04-15T07:29:52;13.8;;;12.4;;
64022;SDS011;50264;52.088;5.296;2023-04-15T07:31:28;13.5;;;12.1;;
64022;SDS011;50264;52.088;5.296;2023-04-15T07:34:41;12.3;;;11.0;;
64022;SDS011;50264;52.088;5.296;2023-04-15T07:36:17;12.8;;;11.4;;
64022;SDS011;50264;52.088;5.296;2023-04-15T07:37:53;12.6;;;10.6;;
64022;SDS011;50264;52.088;5.296;2023-04-15T07:41:05;14.5;;;9.81;;
64022;SDS011;50264;52.088;5.296;2023-04-15T07:42:42;14.6;;;10.4;;
64022;SDS011;50264;52.088;5.296;2023-04-15T07:44:19;13.2;;;10.5;;
64022;SDS011;50264;52.088;5.296;2023-04-15T07:45:56;11.4;;;9.4;;
64022;SDS011;50264;52.088;5.296;2023-04-15T07:49:08;11.9;;;9.71;;
64022;SDS011;50264;52.088;5.296;2023-04-15T07:50:44;11.8;;;9.9;;
64022;SDS011;50264;52.088;5.296;2023-04-15T07:52:20;11.1;;;9.6;;
64022;SDS011;50264;52.088;5.296;2023-04-15T07:55:33;10.0;;;8.71;;
64022;SDS011;50264;52.088;5.296;2023-04-15T07:57:09;9.21;;;8.2;;
64022;SDS011;50264;52.088;5.296;2023-04-15T07:58:45;9.31;;;8.0;;
64022;SDS011;50264;52.088;5.296;2023-04-15T08:01:58;10.8;;;8.4;;
64022;SDS011;50264;52.088;5.296;2023-04-15T08:03:34;8.6;;;7.8;;
64022;SDS011;50264;52.088;5.296;2023-04-15T08:05:10;9.5;;;7.5;;
64022;SDS011;50264;52.088;5.296;2023-04-15T08:06:47;11.1;;;8.2;;
64022;SDS011;50264;52.088;5.296;2023-04-15T08:09:59;10.1;;;8.2;;
64022;SDS011;50264;52.088;5.296;2023-04-15T08:11:36;8.81;;;7.9;;
64022;SDS011;50264;52.088;5.296;2023-04-15T08:13:12;10.4;;;7.2;;
64022;SDS011;50264;52.088;5.296;2023-04-15T08:16:25;14.6;;;7.7;;
64022;SDS011;50264;52.088;5.296;2023-04-15T08:18:01;10.6;;;7.6;;
64022;SDS011;50264;52.088;5.296;2023-04-15T08:19:37;9.1;;;8.1;;
64022;SDS011;50264;52.088;5.296;2023-04-15T08:22:52;9.31;;;7.6;;
64022;SDS011;50264;52.088;5.296;2023-04-15T08:24:29;10.9;;;7.7;;
64022;SDS011;50264;52.088;5.296;2023-04-15T08:26:06;15.0;;;8.2;;
64022;SDS011;50264;52.088;5.296;2023-04-15T08:27:43;8.5;;;7.6;;
64022;SDS011;50264;52.088;5.296;2023-04-15T08:30:56;11.0;;;8.0;;
64022;SDS011;50264;52.088;5.296;2023-04-15T08:32:32;11.7;;;7.7;;
64022;SDS011;50264;52.088;5.296;2023-04-15T08:34:08;9.81;;;7.4;;
64022;SDS011;50264;52.088;5.296;2023-04-15T08:37:21;8.9;;;7.4;;
64022;SDS011;50264;52.088;5.296;2023-04-15T08:38:57;13.6;;;10.3;;
64022;SDS011;50264;52.088;5.296;2023-04-15T08:40:35;10.8;;;7.6;;
64022;SDS011;50264;52.088;5.296;2023-04-15T08:44:02;11.5;;;8.6;;
64022;SDS011;50264;52.088;5.296;2023-04-15T08:45:40;8.1;;;6.0;;
64022;SDS011;50264;52.088;5.296;2023-04-15T08:47:19;10.1;;;5.6;;
64022;SDS011;50264;52.088;5.296;2023-04-15T08:48:57;7.8;;;5.9;;
64022;SDS011;50264;52.088;5.296;2023-04-15T08:52:10;6.7;;;4.2;;
64022;SDS011;50264;52.088;5.296;2023-04-15T08:53:46;5.11;;;4.41;;
64022;SDS011;50264;52.088;5.296;2023-04-15T08:55:22;6.2;;;4.2;;
64022;SDS011;50264;52.088;5.296;2023-04-15T08:57:02;5.0;;;4.5;;
64022;SDS011;50264;52.088;5.296;2023-04-15T09:00:15;6.8;;;4.7;;
64022;SDS011;50264;52.088;5.296;2023-04-15T09:01:52;9.21;;;4.91;;
64022;SDS011;50264;52.088;5.296;2023-04-15T09:03:29;5.2;;;4.7;;
64022;SDS011;50264;52.088;5.296;2023-04-15T09:06:43;6.4;;;5.6;;
64022;SDS011;50264;52.088;5.296;2023-04-15T09:08:20;6.9;;;5.3;;
64022;SDS011;50264;52.088;5.296;2023-04-15T09:09:56;9.71;;;5.9;;
64022;SDS011;50264;52.088;5.296;2023-04-15T09:13:09;8.4;;;6.0;;
64022;SDS011;50264;52.088;5.296;2023-04-15T09:14:46;8.0;;;4.8;;
64022;SDS011;50264;52.088;5.296;2023-04-15T09:16:23;8.81;;;5.11;;
64022;SDS011;50264;52.088;5.296;2023-04-15T09:17:59;7.9;;;5.4;;
64022;SDS011;50264;52.088;5.296;2023-04-15T09:21:13;7.5;;;5.5;;
64022;SDS011;50264;52.088;5.296;2023-04-15T09:22:50;8.81;;;5.8;;
64022;SDS011;50264;52.088;5.296;2023-04-15T09:24:32;7.8;;;5.5;;
64022;SDS011;50264;52.088;5.296;2023-04-15T09:27:52;8.0;;;4.8;;
64022;SDS011;50264;52.088;5.296;2023-04-15T09:29:29;6.2;;;4.8;;
64022;SDS011;50264;52.088;5.296;2023-04-15T09:31:05;5.4;;;4.0;;
64022;SDS011;50264;52.088;5.296;2023-04-15T09:32:46;6.6;;;4.1;;
64022;SDS011;50264;52.088;5.296;2023-04-15T09:36:10;6.6;;;3.4;;
64022;SDS011;50264;52.088;5.296;2023-04-15T09:37:48;6.1;;;3.9;;
64022;SDS011;50264;52.088;5.296;2023-04-15T09:39:25;5.5;;;3.9;;
64022;SDS011;50264;52.088;5.296;2023-04-15T09:41:01;7.2;;;3.9;;
64022;SDS011;50264;52.088;5.296;2023-04-15T09:44:29;3.5;;;3.2;;
64022;SDS011;50264;52.088;5.296;2023-04-15T09:46:06;6.3;;;4.0;;
64022;SDS011;50264;52.088;5.296;2023-04-15T09:47:42;4.41;;;3.5;;
64022;SDS011;50264;52.088;5.296;2023-04-15T09:49:18;7.3;;;3.6;;
64022;SDS011;50264;52.088;5.296;2023-04-15T09:52:33;3.7;;;3.2;;
64022;SDS011;50264;52.088;5.296;2023-04-15T09:54:17;5.6;;;4.0;;
64022;SDS011;50264;52.088;5.296;2023-04-15T09:55:54;3.9;;;3.5;;
64022;SDS011;50264;52.088;5.296;2023-04-15T09:59:09;5.8;;;4.2;;
64022;SDS011;50264;52.088;5.296;2023-04-15T10:00:46;7.4;;;4.5;;
64022;SDS011;50264;52.088;5.296;2023-04-15T10:02:23;4.61;;;3.8;;
64022;SDS011;50264;52.088;5.296;2023-04-15T10:04:02;10.0;;;4.1;;
64022;SDS011;50264;52.088;5.296;2023-04-15T10:07:16;5.0;;;4.2;;
64022;SDS011;50264;52.088;5.296;2023-04-15T10:08:54;6.7;;;4.5;;
64022;SDS011;50264;52.088;5.296;2023-04-15T10:10:32;6.5;;;4.3;;
64022;SDS011;50264;52.088;5.296;2023-04-15T10:13:47;7.6;;;4.7;;
64022;SDS011;50264;52.088;5.296;2023-04-15T10:15:24;7.5;;;4.5;;
64022;SDS011;50264;52.088;5.296;2023-04-15T10:17:03;5.8;;;4.3;;
64022;SDS011;50264;52.088;5.296;2023-04-15T10:18:42;7.0;;;4.5;;
64022;SDS011;50264;52.088;5.296;2023-04-15T10:21:58;5.8;;;4.2;;
64022;SDS011;50264;52.088;5.296;2023-04-15T10:23:34;8.5;;;4.0;;
64022;SDS011;50264;52.088;5.296;2023-04-15T10:25:10;6.7;;;4.5;;
64022;SDS011;50264;52.088;5.296;2023-04-15T10:28:24;5.6;;;4.2;;
64022;SDS011;50264;52.088;5.296;2023-04-15T10:30:02;6.8;;;4.7;;
64022;SDS011;50264;52.088;5.296;2023-04-15T10:31:39;6.7;;;4.1;;
64022;SDS011;50264;52.088;5.296;2023-04-15T10:33:16;4.8;;;4.2;;
64022;SDS011;50264;52.088;5.296;2023-04-15T10:36:32;7.9;;;4.8;;
64022;SDS011;50264;52.088;5.296;2023-04-15T10:38:30;5.0;;;4.1;;
64022;SDS011;50264;52.088;5.296;2023-04-15T10:40:22;4.41;;;4.0;;
64022;SDS011;50264;52.088;5.296;2023-04-15T10:42:04;4.5;;;4.1;;
64022;SDS011;50264;52.088;5.296;2023-04-15T10:43:46;4.41;;;3.8;;
64022;SDS011;50264;52.088;5.296;2023-04-15T10:47:10;4.91;;;4.3;;
64022;SDS011;50264;52.088;5.296;2023-04-15T10:48:49;4.1;;;3.5;;
64022;SDS011;50264;52.088;5.296;2023-04-15T10:50:27;6.2;;;4.3;;
64022;SDS011;50264;52.088;5.296;2023-04-15T10:52:07;5.11;;;4.1;;
64022;SDS011;50264;52.088;5.296;2023-04-15T10:55:20;6.8;;;3.7;;
64022;SDS011;50264;52.088;5.296;2023-04-15T10:57:05;5.9;;;4.1;;
64022;SDS011;50264;52.088;5.296;2023-04-15T10:58:44;4.61;;;4.2;;
64022;SDS011;50264;52.088;5.296;2023-04-15T11:02:01;5.4;;;4.7;;
64022;SDS011;50264;52.088;5.296;2023-04-15T11:03:41;6.1;;;4.8;;
64022;SDS011;50264;52.088;5.296;2023-04-15T11:05:18;5.3;;;4.5;;
64022;SDS011;50264;52.088;5.296;2023-04-15T11:07:04;7.2;;;5.6;;
64022;SDS011;50264;52.088;5.296;2023-04-15T11:10:49;7.3;;;4.8;;
64022;SDS011;50264;52.088;5.296;2023-04-15T11:12:32;5.3;;;4.61;;
64022;SDS011;50264;52.088;5.296;2023-04-15T11:14:13;6.0;;;3.9;;
64022;SDS011;50264;52.088;5.296;2023-04-15T11:15:53;4.91;;;4.1;;
64022;SDS011;50264;52.088;5.296;2023-04-15T11:17:31;5.8;;;4.7;;
64022;SDS011;50264;52.088;5.296;2023-04-15T11:20:44;5.3;;;4.0;;
64022;SDS011;50264;52.088;5.296;2023-04-15T11:22:21;4.61;;;3.4;;
64022;SDS011;50264;52.088;5.296;2023-04-15T11:23:57;4.61;;;4.1;;
64022;SDS011;50264;52.088;5.296;2023-04-15T11:25:34;5.7;;;3.8;;
64022;SDS011;50264;52.088;5.296;2023-04-15T11:28:55;3.9;;;3.4;;
64022;SDS011;50264;52.088;5.296;2023-04-15T11:30:32;5.4;;;3.2;;
64022;SDS011;50264;52.088;5.296;2023-04-15T11:32:09;5.4;;;3.3;;
64022;SDS011;50264;52.088;5.296;2023-04-15T11:35:29;4.0;;;3.0;;
64022;SDS011;50264;52.088;5.296;2023-04-15T11:37:06;5.0;;;3.1;;
64022;SDS011;50264;52.088;5.296;2023-04-15T11:38:43;3.0;;;2.7;;
64022;SDS011;50264;52.088;5.296;2023-04-15T11:40:21;4.0;;;2.7;;
64022;SDS011;50264;52.088;5.296;2023-04-15T11:43:35;2.8;;;2.5;;
64022;SDS011;50264;52.088;5.296;2023-04-15T11:45:12;3.6;;;2.5;;
64022;SDS011;50264;52.088;5.296;2023-04-15T11:46:49;3.0;;;2.1;;
64022;SDS011;50264;52.088;5.296;2023-04-15T11:50:20;2.5;;;2.31;;
64022;SDS011;50264;52.088;5.296;2023-04-15T11:51:58;2.4;;;2.21;;
64022;SDS011;50264;52.088;5.296;2023-04-15T11:53:35;3.9;;;2.7;;
64022;SDS011;50264;52.088;5.296;2023-04-15T11:55:12;3.7;;;2.9;;
64022;SDS011;50264;52.088;5.296;2023-04-15T11:58:26;5.2;;;3.2;;
64022;SDS011;50264;52.088;5.296;2023-04-15T12:00:04;5.8;;;2.6;;
64022;SDS011;50264;52.088;5.296;2023-04-15T12:01:42;3.0;;;2.7;;
64022;SDS011;50264;52.088;5.296;2023-04-15T12:03:19;3.5;;;2.4;;
64022;SDS011;50264;52.088;5.296;2023-04-15T12:06:38;5.11;;;2.31;;
64022;SDS011;50264;52.088;5.296;2023-04-15T12:08:15;3.7;;;2.6;;
64022;SDS011;50264;52.088;5.296;2023-04-15T12:09:53;3.8;;;2.6;;
64022;SDS011;50264;52.088;5.296;2023-04-15T12:13:12;4.1;;;2.21;;
64022;SDS011;50264;52.088;5.296;2023-04-15T12:14:50;3.0;;;2.21;;
64022;SDS011;50264;52.088;5.296;2023-04-15T12:16:27;4.61;;;2.5;;
64022;SDS011;50264;52.088;5.296;2023-04-15T12:18:03;3.4;;;2.21;;
64022;SDS011;50264;52.088;5.296;2023-04-15T12:21:17;3.0;;;2.0;;
64022;SDS011;50264;52.088;5.296;2023-04-15T12:23:03;3.4;;;2.0;;
64022;SDS011;50264;52.088;5.296;2023-04-15T12:24:41;2.5;;;1.9;;
64022;SDS011;50264;52.088;5.296;2023-04-15T12:26:24;3.4;;;1.9;;
64022;SDS011;50264;52.088;5.296;2023-04-15T12:29:46;3.5;;;1.9;;
64022;SDS011;50264;52.088;5.296;2023-04-15T12:31:22;5.7;;;2.5;;
64022;SDS011;50264;52.088;5.296;2023-04-15T12:32:58;7.0;;;2.21;;
64022;SDS011;50264;52.088;5.296;2023-04-15T12:34:35;2.9;;;2.31;;
64022;SDS011;50264;52.088;5.296;2023-04-15T12:37:49;3.1;;;2.0;;
64022;SDS011;50264;52.088;5.296;2023-04-15T12:39:26;2.21;;;2.0;;
64022;SDS011;50264;52.088;5.296;2023-04-15T12:41:03;2.9;;;2.0;;
64022;SDS011;50264;52.088;5.296;2023-04-15T12:44:15;7.4;;;3.0;;
64022;SDS011;50264;52.088;5.296;2023-04-15T12:45:52;3.7;;;2.21;;
64022;SDS011;50264;52.088;5.296;2023-04-15T12:47:28;3.4;;;2.1;;
64022;SDS011;50264;52.088;5.296;2023-04-15T12:50:40;4.61;;;2.21;;
64022;SDS011;50264;52.088;5.296;2023-04-15T12:52:16;3.8;;;1.8;;
64022;SDS011;50264;52.088;5.296;2023-04-15T12:53:53;4.61;;;2.5;;
64022;SDS011;50264;52.088;5.296;2023-04-15T12:55:29;4.2;;;2.1;;